createdAt,value
2023-05-14T00:02:21.175Z,9.30
2023-05-14T00:04:50.965Z,9.26
2023-05-14T00:07:20.702Z,9.21
2023-05-14T00:09:50.520Z,9.18
2023-05-14T00:12:20.207Z,9.14
2023-05-14T00:14:49.948Z,9.12
2023-05-14T00:17:22.497Z,9.10
2023-05-14T00:19:52.282Z,9.07
2023-05-14T00:22:21.968Z,9.02
2023-05-14T00:24:51.848Z,8.97
2023-05-14T00:27:21.623Z,8.95
2023-05-14T00:29:51.317Z,8.91
2023-05-14T00:32:23.696Z,8.86
2023-05-14T00:34:53.453Z,8.82
2023-05-14T00:37:23.179Z,8.78
2023-05-14T00:39:53.005Z,8.76
2023-05-14T00:42:22.696Z,8.74
2023-05-14T00:44:52.543Z,8.71
2023-05-14T00:47:25.182Z,8.67
2023-05-14T00:49:54.917Z,8.63
2023-05-14T00:52:24.702Z,8.60
2023-05-14T00:54:54.984Z,8.58
2023-05-14T00:57:24.708Z,8.54
2023-05-14T00:59:54.878Z,8.50
2023-05-14T01:02:27.383Z,8.49
2023-05-14T01:04:57.551Z,8.46
2023-05-14T01:07:32.978Z,8.44
2023-05-14T01:10:05.908Z,8.43
2023-05-14T01:12:40.053Z,8.40
2023-05-14T01:15:11.135Z,8.37
2023-05-14T01:17:45.987Z,8.33
2023-05-14T01:20:15.856Z,8.30
2023-05-14T01:22:48.265Z,8.28
2023-05-14T01:25:18.009Z,8.26
2023-05-14T01:27:53.041Z,8.25
2023-05-14T01:30:25.884Z,8.22
2023-05-14T01:32:58.676Z,8.21
2023-05-14T01:35:31.525Z,8.19
2023-05-14T01:38:05.438Z,8.17
2023-05-14T01:40:36.403Z,8.14
2023-05-14T01:43:06.582Z,8.12
2023-05-14T01:45:37.942Z,8.10
2023-05-14T01:48:08.548Z,8.10
2023-05-14T01:50:38.402Z,8.08
2023-05-14T01:53:11.296Z,8.07
2023-05-14T01:55:41.157Z,8.06
2023-05-14T01:58:10.978Z,8.04
2023-05-14T02:00:41.203Z,8.02
2023-05-14T02:03:11.250Z,8.01
2023-05-14T02:05:40.982Z,7.99
2023-05-14T02:08:13.529Z,7.96
2023-05-14T02:10:43.251Z,7.93
2023-05-14T02:13:13.171Z,7.92
2023-05-14T02:15:43.024Z,7.89
2023-05-14T02:18:12.942Z,7.87
2023-05-14T02:20:42.610Z,7.84
2023-05-14T02:23:14.986Z,7.84
2023-05-14T02:25:46.659Z,7.82
2023-05-14T02:28:16.696Z,7.80
2023-05-14T02:30:46.410Z,7.79
2023-05-14T02:33:16.300Z,7.80
2023-05-14T02:35:46.088Z,7.81
2023-05-14T02:38:19.002Z,7.77
2023-05-14T02:40:48.791Z,7.72
2023-05-14T02:43:19.220Z,7.67
2023-05-14T02:45:49.064Z,7.67
2023-05-14T02:48:18.774Z,7.70
2023-05-14T02:50:48.962Z,7.69
2023-05-14T02:53:21.365Z,7.63
2023-05-14T02:55:51.155Z,7.63
2023-05-14T02:58:25.391Z,7.63
2023-05-14T03:00:58.420Z,7.60
2023-05-14T03:03:28.572Z,7.59
2023-05-14T03:05:58.952Z,7.56
2023-05-14T03:08:31.204Z,7.55
2023-05-14T03:11:01.056Z,7.52
2023-05-14T03:13:30.991Z,7.52
2023-05-14T03:16:00.845Z,7.49
2023-05-14T03:18:30.953Z,7.47
2023-05-14T03:21:00.844Z,7.44
2023-05-14T03:23:35.219Z,7.42
2023-05-14T03:26:05.119Z,7.40
2023-05-14T03:28:35.022Z,7.36
2023-05-14T03:31:04.909Z,7.35
2023-05-14T03:33:34.921Z,7.32
2023-05-14T03:36:04.814Z,7.29
2023-05-14T03:38:37.102Z,7.27
2023-05-14T03:41:06.907Z,7.24
2023-05-14T03:43:36.590Z,7.23
2023-05-14T03:46:06.408Z,7.22
2023-05-14T03:48:36.223Z,7.25
2023-05-14T03:51:07.777Z,7.31
2023-05-14T03:53:41.493Z,7.35
2023-05-14T03:56:11.336Z,7.37
2023-05-14T03:58:41.019Z,7.37
2023-05-14T04:01:11.044Z,7.37
2023-05-14T04:03:41.243Z,7.37
2023-05-14T04:06:11.529Z,7.36
2023-05-14T04:08:43.821Z,7.36
2023-05-14T04:11:13.578Z,7.37
2023-05-14T04:13:43.392Z,7.39
2023-05-14T04:16:13.770Z,7.40
2023-05-14T04:18:43.555Z,7.44
2023-05-14T04:21:13.274Z,7.49
2023-05-14T04:23:45.591Z,7.54
2023-05-14T04:26:15.325Z,7.58
2023-05-14T04:28:45.057Z,7.60
2023-05-14T04:31:15.542Z,7.63
2023-05-14T04:33:45.318Z,7.65
2023-05-14T04:36:15.072Z,7.69
2023-05-14T04:38:47.318Z,7.75
2023-05-14T04:41:17.015Z,7.80
2023-05-14T04:43:46.694Z,7.87
2023-05-14T04:46:16.814Z,7.95
2023-05-14T04:48:46.571Z,8.02
2023-05-14T04:51:16.304Z,8.11
2023-05-14T04:53:48.743Z,8.21
2023-05-14T04:56:18.439Z,8.30
2023-05-14T04:58:48.139Z,8.38
2023-05-14T05:01:18.117Z,8.49
2023-05-14T05:03:47.874Z,8.59
2023-05-14T05:06:17.711Z,8.71
2023-05-14T05:08:49.989Z,8.84
2023-05-14T05:11:19.651Z,8.98
2023-05-14T05:13:49.373Z,9.12
2023-05-14T05:16:19.146Z,9.27
2023-05-14T05:18:48.917Z,9.44
2023-05-14T05:21:18.949Z,9.59
2023-05-14T05:23:51.300Z,9.77
2023-05-14T05:26:22.262Z,9.94
2023-05-14T05:28:51.980Z,10.14
2023-05-14T05:31:21.854Z,10.37
2023-05-14T05:33:51.556Z,10.60
2023-05-14T05:36:21.242Z,10.82
2023-05-14T05:38:53.630Z,11.00
2023-05-14T05:41:23.330Z,11.16
2023-05-14T05:43:53.488Z,11.27
2023-05-14T05:46:23.253Z,11.38
2023-05-14T05:48:53.435Z,11.45
2023-05-14T05:51:23.191Z,11.51
2023-05-14T05:53:55.535Z,11.55
2023-05-14T05:56:25.408Z,11.57
2023-05-14T05:58:55.140Z,11.63
2023-05-14T06:01:24.938Z,11.72
2023-05-14T06:03:54.755Z,11.84
2023-05-14T06:06:24.590Z,11.97
2023-05-14T06:08:56.875Z,12.12
2023-05-14T06:11:26.742Z,12.32
2023-05-14T06:13:56.518Z,12.72
2023-05-14T06:16:26.220Z,13.34
2023-05-14T06:18:56.962Z,14.41
2023-05-14T06:21:26.725Z,15.71
2023-05-14T06:23:59.024Z,17.12
2023-05-14T06:26:28.832Z,18.53
2023-05-14T06:28:59.300Z,19.80
2023-05-14T06:31:29.214Z,20.86
2023-05-14T06:33:58.913Z,21.84
2023-05-14T06:36:28.679Z,22.77
2023-05-14T06:39:01.007Z,23.74
2023-05-14T06:41:30.810Z,24.70
2023-05-14T06:44:00.553Z,25.59
2023-05-14T06:46:30.335Z,26.42
2023-05-14T06:49:00.169Z,27.24
2023-05-14T06:51:29.962Z,28.04
2023-05-14T06:54:02.240Z,28.72
2023-05-14T06:56:32.020Z,29.35
2023-05-14T06:59:01.781Z,29.95
2023-05-14T07:01:31.605Z,30.45
2023-05-14T07:04:01.407Z,30.93
2023-05-14T07:06:31.205Z,31.29
2023-05-14T07:09:07.012Z,31.59
2023-05-14T07:11:36.996Z,31.91
2023-05-14T07:14:06.735Z,31.92
2023-05-14T07:16:36.480Z,31.80
2023-05-14T07:19:06.698Z,31.89
2023-05-14T07:21:36.502Z,32.06
2023-05-14T07:24:09.435Z,32.48
2023-05-14T07:26:39.372Z,32.94
2023-05-14T07:29:09.568Z,33.37
2023-05-14T07:31:39.357Z,33.71
2023-05-14T07:34:11.048Z,33.77
2023-05-14T07:36:41.339Z,33.67
2023-05-14T07:39:13.698Z,33.66
2023-05-14T07:41:43.560Z,33.84
2023-05-14T07:44:13.298Z,33.97
2023-05-14T07:46:43.033Z,34.05
2023-05-14T07:49:12.710Z,34.28
2023-05-14T07:51:42.563Z,34.76
2023-05-14T07:54:14.955Z,35.38
2023-05-14T07:56:44.677Z,35.97
2023-05-14T07:59:14.359Z,36.54
2023-05-14T08:01:44.410Z,37.06
2023-05-14T08:04:16.392Z,37.41
2023-05-14T08:06:46.162Z,37.65
2023-05-14T08:09:18.408Z,37.81
2023-05-14T08:11:48.093Z,37.91
2023-05-14T08:14:17.784Z,38.00
2023-05-14T08:16:47.966Z,38.23
2023-05-14T08:19:18.705Z,38.48
2023-05-14T08:21:48.525Z,38.68
2023-05-14T08:24:21.585Z,38.77
2023-05-14T08:26:51.318Z,38.81
2023-05-14T08:29:20.993Z,38.82
2023-05-14T08:31:51.322Z,38.95
2023-05-14T08:34:21.033Z,38.95
2023-05-14T08:36:51.117Z,38.93
2023-05-14T08:39:23.420Z,39.18
2023-05-14T08:41:52.893Z,39.44
2023-05-14T08:44:26.006Z,39.50
2023-05-14T08:46:57.025Z,39.54
2023-05-14T08:49:33.213Z,39.50
2023-05-14T08:52:03.062Z,39.73
2023-05-14T08:54:35.534Z,40.08
2023-05-14T08:57:06.380Z,40.19
2023-05-14T08:59:36.040Z,40.23
2023-05-14T09:02:07.917Z,40.45
2023-05-14T09:04:37.843Z,39.81
2023-05-14T09:07:07.905Z,38.15
2023-05-14T09:09:40.604Z,36.07
2023-05-14T09:12:11.465Z,35.04
2023-05-14T09:14:41.521Z,33.92
2023-05-14T09:17:12.690Z,32.35
2023-05-14T09:19:42.534Z,31.05
2023-05-14T09:22:14.612Z,30.62
2023-05-14T09:24:47.292Z,31.43
2023-05-14T09:27:22.904Z,32.49
2023-05-14T09:29:52.610Z,32.24
2023-05-14T09:32:22.387Z,30.98
2023-05-14T09:34:52.110Z,30.23
2023-05-14T09:37:22.092Z,30.75
2023-05-14T09:39:54.482Z,31.77
2023-05-14T09:42:24.321Z,32.66
2023-05-14T09:44:56.642Z,32.90
2023-05-14T09:47:26.815Z,33.20
2023-05-14T09:49:56.621Z,33.37
2023-05-14T09:52:26.711Z,32.80
2023-05-14T09:54:58.996Z,32.72
2023-05-14T09:57:29.383Z,32.83
2023-05-14T09:59:59.112Z,33.01
2023-05-14T10:02:37.002Z,32.98
2023-05-14T10:05:08.879Z,32.77
2023-05-14T10:07:42.785Z,32.36
2023-05-14T10:10:18.584Z,31.56
2023-05-14T10:12:54.715Z,30.79
2023-05-14T10:15:30.060Z,30.05
2023-05-14T10:18:02.279Z,29.54
2023-05-14T10:20:32.504Z,28.91
2023-05-14T10:23:02.418Z,28.17
2023-05-14T10:25:35.186Z,27.43
2023-05-14T10:28:06.025Z,26.75
2023-05-14T10:30:36.644Z,26.16
2023-05-14T10:33:11.058Z,25.70
2023-05-14T10:36:00.837Z,25.22
2023-05-14T10:38:30.962Z,24.78
2023-05-14T10:41:07.091Z,24.44
2023-05-14T10:43:40.485Z,24.23
2023-05-14T10:46:11.315Z,24.14
2023-05-14T10:48:43.986Z,24.09
2023-05-14T10:51:14.546Z,24.08
2023-05-14T10:53:45.169Z,24.06
2023-05-14T10:56:17.890Z,23.96
2023-05-14T10:58:48.221Z,23.77
2023-05-14T11:01:18.601Z,23.53
2023-05-14T11:03:49.188Z,23.29
2023-05-14T11:06:19.163Z,23.04
2023-05-14T11:08:48.894Z,22.85
2023-05-14T11:11:21.997Z,22.72
2023-05-14T11:13:52.011Z,22.65
2023-05-14T11:16:24.082Z,22.75
2023-05-14T11:19:04.586Z,22.89
2023-05-14T11:21:35.161Z,22.97
2023-05-14T11:24:05.673Z,23.18
2023-05-14T11:26:38.695Z,23.42
2023-05-14T11:29:08.442Z,23.31
2023-05-14T11:31:38.751Z,22.97
2023-05-14T11:34:10.205Z,22.73
2023-05-14T11:36:39.966Z,22.54
2023-05-14T11:39:10.068Z,22.36
2023-05-14T11:41:47.046Z,22.28
2023-05-14T11:44:16.963Z,22.25
2023-05-14T11:46:57.359Z,22.27
2023-05-14T11:49:29.040Z,22.23
2023-05-14T11:52:01.764Z,22.18
2023-05-14T11:54:31.754Z,22.16
2023-05-14T11:57:07.386Z,22.13
2023-05-14T11:59:37.352Z,22.10
2023-05-14T12:02:07.801Z,22.01
2023-05-14T12:04:37.756Z,21.97
2023-05-14T12:07:11.941Z,22.09
2023-05-14T12:09:49.220Z,22.19
2023-05-14T12:12:22.740Z,22.34
2023-05-14T12:14:53.240Z,22.42
2023-05-14T12:17:24.315Z,22.46
2023-05-14T12:19:56.550Z,22.38
2023-05-14T12:22:26.460Z,22.22
2023-05-14T12:24:56.875Z,22.00
2023-05-14T12:27:30.559Z,21.71
2023-05-14T12:30:19.878Z,21.53
2023-05-14T12:32:53.138Z,21.46
2023-05-14T12:35:24.222Z,21.45
2023-05-14T12:37:54.144Z,21.46
2023-05-14T12:40:24.152Z,21.55
2023-05-14T12:42:56.880Z,21.65
2023-05-14T12:45:26.751Z,21.67
2023-05-14T12:47:56.552Z,21.67
2023-05-14T12:50:26.702Z,21.71
2023-05-14T12:52:56.668Z,21.81
2023-05-14T12:55:26.382Z,21.91
2023-05-14T12:57:58.670Z,22.06
2023-05-14T13:00:28.433Z,22.24
2023-05-14T13:02:58.301Z,22.48
2023-05-14T13:05:28.065Z,22.72
2023-05-14T13:07:58.027Z,22.92
2023-05-14T13:10:27.723Z,22.91
2023-05-14T13:13:00.144Z,22.79
2023-05-14T13:15:31.748Z,22.77
2023-05-14T13:18:01.612Z,22.85
2023-05-14T13:20:31.401Z,22.91
2023-05-14T13:23:01.123Z,22.87
2023-05-14T13:25:31.029Z,22.75
2023-05-14T13:28:03.349Z,22.57
2023-05-14T13:30:33.296Z,22.36
2023-05-14T13:33:03.195Z,22.29
2023-05-14T13:35:33.137Z,22.38
2023-05-14T13:38:03.134Z,22.55
2023-05-14T13:40:32.934Z,22.72
2023-05-14T13:43:05.239Z,22.90
2023-05-14T13:45:35.042Z,23.05
2023-05-14T13:48:04.739Z,23.13
2023-05-14T13:50:34.468Z,22.96
2023-05-14T13:53:04.256Z,22.71
2023-05-14T13:55:34.150Z,22.61
2023-05-14T13:58:07.614Z,22.65
2023-05-14T14:00:37.373Z,22.70
2023-05-14T14:03:08.078Z,22.79
2023-05-14T14:05:38.356Z,23.02
2023-05-14T14:08:22.502Z,23.19
2023-05-14T14:10:55.487Z,23.41
2023-05-14T14:13:29.593Z,23.41
2023-05-14T14:15:59.606Z,23.38
2023-05-14T14:18:29.595Z,23.25
2023-05-14T14:20:59.414Z,23.10
2023-05-14T14:23:29.257Z,22.94
2023-05-14T14:25:58.954Z,22.74
2023-05-14T14:28:31.559Z,22.55
2023-05-14T14:31:01.652Z,22.46
2023-05-14T14:33:31.554Z,22.41
2023-05-14T14:36:01.315Z,22.41
2023-05-14T14:38:31.038Z,22.43
2023-05-14T14:41:03.096Z,22.46
2023-05-14T14:43:35.418Z,22.45
2023-05-14T14:46:05.224Z,22.36
2023-05-14T14:48:37.831Z,22.30
2023-05-14T14:51:08.394Z,22.27
2023-05-14T14:53:40.483Z,22.24
2023-05-14T14:56:10.457Z,22.21
2023-05-14T14:58:42.769Z,22.09
2023-05-14T15:01:12.540Z,22.07
2023-05-14T15:03:42.853Z,22.21
2023-05-14T15:06:12.609Z,22.39
2023-05-14T15:08:42.342Z,22.50
2023-05-14T15:11:12.126Z,22.46
2023-05-14T15:13:44.550Z,22.33
2023-05-14T15:16:14.368Z,22.22
2023-05-14T15:18:44.167Z,22.23
2023-05-14T15:21:13.910Z,22.34
2023-05-14T15:23:43.639Z,22.34
2023-05-14T15:26:13.578Z,22.20
2023-05-14T15:28:45.858Z,22.02
2023-05-14T15:31:15.588Z,21.85
2023-05-14T15:33:45.365Z,21.77
2023-05-14T15:36:15.195Z,21.69
2023-05-14T15:38:44.972Z,21.70
2023-05-14T15:41:14.618Z,21.74
2023-05-14T15:43:46.878Z,21.83
2023-05-14T15:46:16.735Z,21.90
2023-05-14T15:48:46.496Z,21.95
2023-05-14T15:51:16.726Z,21.97
2023-05-14T15:53:46.453Z,22.02
2023-05-14T15:56:16.244Z,22.02
2023-05-14T15:58:48.534Z,22.01
2023-05-14T16:01:18.424Z,22.01
2023-05-14T16:03:48.323Z,21.97
2023-05-14T16:06:18.132Z,21.88
2023-05-14T16:08:47.943Z,21.78
2023-05-14T16:11:17.665Z,21.72
2023-05-14T16:13:50.565Z,21.60
2023-05-14T16:16:20.867Z,21.51
2023-05-14T16:18:50.638Z,21.45
2023-05-14T16:21:20.372Z,21.46
2023-05-14T16:23:50.148Z,21.48
2023-05-14T16:26:19.977Z,21.46
2023-05-14T16:28:52.512Z,21.43
2023-05-14T16:31:22.251Z,21.43
2023-05-14T16:33:52.082Z,21.42
2023-05-14T16:36:21.795Z,21.41
2023-05-14T16:39:06.869Z,21.40
2023-05-14T16:41:37.451Z,21.34
2023-05-14T16:44:09.896Z,21.30
2023-05-14T16:46:39.744Z,21.24
2023-05-14T16:49:09.507Z,21.21
2023-05-14T16:51:43.168Z,21.17
2023-05-14T16:54:12.763Z,21.12
2023-05-14T16:56:42.480Z,21.09
2023-05-14T16:59:14.785Z,21.04
2023-05-14T17:01:44.658Z,20.98
2023-05-14T17:04:15.045Z,20.85
2023-05-14T17:06:44.793Z,20.74
2023-05-14T17:09:14.632Z,20.63
2023-05-14T17:11:44.364Z,20.55
2023-05-14T17:14:16.667Z,20.48
2023-05-14T17:16:47.440Z,20.41
2023-05-14T17:19:17.140Z,20.34
2023-05-14T17:21:46.940Z,20.23
2023-05-14T17:24:17.297Z,20.15
2023-05-14T17:26:47.169Z,20.05
2023-05-14T17:29:19.949Z,19.98
2023-05-14T17:31:50.975Z,19.89
2023-05-14T17:34:21.225Z,19.81
2023-05-14T17:36:51.058Z,19.72
2023-05-14T17:39:20.955Z,19.66
2023-05-14T17:41:50.648Z,19.62
2023-05-14T17:44:23.033Z,19.56
2023-05-14T17:46:52.821Z,19.51
2023-05-14T17:49:22.560Z,19.47
2023-05-14T17:51:52.220Z,19.42
2023-05-14T17:54:21.932Z,19.41
2023-05-14T17:56:51.825Z,19.38
2023-05-14T17:59:24.506Z,19.33
2023-05-14T18:01:54.309Z,19.27
2023-05-14T18:04:24.005Z,19.23
2023-05-14T18:06:53.923Z,19.18
2023-05-14T18:09:23.628Z,19.13
2023-05-14T18:11:54.726Z,19.07
2023-05-14T18:14:29.224Z,19.01
2023-05-14T18:16:58.975Z,18.96
2023-05-14T18:19:28.641Z,18.88
2023-05-14T18:21:58.435Z,18.82
2023-05-14T18:24:28.184Z,18.76
2023-05-14T18:26:58.226Z,18.73
2023-05-14T18:29:30.472Z,18.68
2023-05-14T18:32:00.177Z,18.64
2023-05-14T18:34:29.870Z,18.59
2023-05-14T18:36:59.647Z,18.54
2023-05-14T18:39:29.321Z,18.48
2023-05-14T18:41:59.132Z,18.42
2023-05-14T18:44:31.467Z,18.36
2023-05-14T18:47:02.145Z,18.29
2023-05-14T18:49:31.836Z,18.22
2023-05-14T18:52:02.002Z,18.13
2023-05-14T18:54:31.774Z,18.04
2023-05-14T18:57:01.778Z,17.95
2023-05-14T18:59:34.094Z,17.87
2023-05-14T19:02:04.259Z,17.80
2023-05-14T19:04:44.230Z,17.72
2023-05-14T19:07:20.814Z,17.64
2023-05-14T19:09:50.605Z,17.56
2023-05-14T19:12:20.458Z,17.50
2023-05-14T19:14:52.882Z,17.45
2023-05-14T19:17:22.694Z,17.39
2023-05-14T19:19:52.410Z,17.35
2023-05-14T19:22:22.521Z,17.31
2023-05-14T19:24:52.241Z,17.27
2023-05-14T19:27:21.994Z,17.23
2023-05-14T19:29:54.211Z,17.19
2023-05-14T19:32:24.208Z,17.14
2023-05-14T19:34:53.987Z,17.09
2023-05-14T19:37:24.171Z,17.06
2023-05-14T19:39:53.875Z,17.01
2023-05-14T19:42:24.921Z,16.96
2023-05-14T19:44:57.220Z,16.89
2023-05-14T19:47:27.684Z,16.84
2023-05-14T19:49:57.456Z,16.80
2023-05-14T19:52:27.189Z,16.73
2023-05-14T19:54:56.883Z,16.68
2023-05-14T19:57:27.148Z,16.64
2023-05-14T20:00:00.304Z,16.60
2023-05-14T20:02:30.441Z,16.56
2023-05-14T20:05:00.443Z,16.54
2023-05-14T20:07:31.001Z,16.51
2023-05-14T20:10:01.412Z,16.47
2023-05-14T20:12:31.429Z,16.44
2023-05-14T20:15:04.318Z,16.37
2023-05-14T20:17:34.098Z,16.32
2023-05-14T20:20:04.886Z,16.26
2023-05-14T20:22:34.609Z,16.23
2023-05-14T20:25:04.352Z,16.18
2023-05-14T20:27:34.129Z,16.16
2023-05-14T20:30:07.101Z,16.15
2023-05-14T20:32:36.895Z,16.15
2023-05-14T20:35:07.204Z,16.14
2023-05-14T20:37:37.684Z,16.13
2023-05-14T20:40:10.502Z,16.11
2023-05-14T20:42:40.330Z,16.10
2023-05-14T20:45:13.955Z,16.08
2023-05-14T20:47:43.718Z,16.07
2023-05-14T20:50:14.446Z,16.06
2023-05-14T20:52:44.186Z,16.06
2023-05-14T20:55:14.156Z,16.03
2023-05-14T20:57:44.022Z,16.02
2023-05-14T21:00:17.595Z,16.01
2023-05-14T21:02:49.392Z,15.99
2023-05-14T21:05:20.886Z,15.98
2023-05-14T21:07:50.663Z,15.97
2023-05-14T21:10:20.393Z,15.94
2023-05-14T21:12:50.074Z,15.93
2023-05-14T21:15:22.818Z,15.90
2023-05-14T21:17:53.105Z,15.86
2023-05-14T21:20:23.195Z,15.83
2023-05-14T21:22:52.880Z,15.79
2023-05-14T21:25:22.849Z,15.75
2023-05-14T21:27:52.760Z,15.72
2023-05-14T21:30:25.222Z,15.68
2023-05-14T21:32:55.104Z,15.62
2023-05-14T21:35:25.150Z,15.56
2023-05-14T21:37:55.097Z,15.52
2023-05-14T21:40:24.905Z,15.47
2023-05-14T21:42:54.712Z,15.42
2023-05-14T21:45:27.217Z,15.37
2023-05-14T21:47:57.214Z,15.30
2023-05-14T21:50:27.177Z,15.25
2023-05-14T21:52:57.052Z,15.20
2023-05-14T21:55:27.814Z,15.15
2023-05-14T21:57:57.932Z,15.11
2023-05-14T22:00:30.763Z,15.05
2023-05-14T22:03:00.552Z,15.03
2023-05-14T22:05:30.350Z,15.00
2023-05-14T22:08:00.068Z,14.98
2023-05-14T22:10:29.800Z,14.92
2023-05-14T22:12:59.545Z,14.85
2023-05-14T22:15:31.882Z,14.76
2023-05-14T22:18:03.326Z,14.64
2023-05-14T22:20:33.122Z,14.54
2023-05-14T22:23:02.786Z,14.42
2023-05-14T22:25:32.515Z,14.29
2023-05-14T22:28:02.386Z,14.18
2023-05-14T22:30:34.693Z,14.08
2023-05-14T22:33:04.446Z,13.96
2023-05-14T22:35:34.129Z,13.87
2023-05-14T22:38:03.995Z,13.76
2023-05-14T22:40:33.707Z,13.63
2023-05-14T22:43:03.471Z,13.53
2023-05-14T22:45:35.928Z,13.43
2023-05-14T22:48:05.772Z,13.34
2023-05-14T22:50:35.822Z,13.24
2023-05-14T22:53:05.579Z,13.15
2023-05-14T22:55:35.369Z,13.09
2023-05-14T22:58:05.722Z,13.03
2023-05-14T23:00:38.118Z,12.97
2023-05-14T23:03:07.919Z,12.89
2023-05-14T23:05:37.872Z,12.82
2023-05-14T23:08:08.294Z,12.75
2023-05-14T23:10:38.222Z,12.68
2023-05-14T23:13:07.940Z,12.61
2023-05-14T23:15:40.531Z,12.55
2023-05-14T23:18:11.029Z,12.48
2023-05-14T23:20:40.899Z,12.43
2023-05-14T23:23:10.629Z,12.40
2023-05-14T23:25:40.415Z,12.34
2023-05-14T23:28:10.193Z,12.30
2023-05-14T23:30:42.482Z,12.30
2023-05-14T23:33:12.278Z,12.29
2023-05-14T23:35:42.802Z,12.29
2023-05-14T23:38:12.581Z,12.26
2023-05-14T23:40:42.365Z,12.21
2023-05-14T23:43:12.160Z,12.14
2023-05-14T23:45:44.668Z,12.05
2023-05-14T23:48:14.431Z,11.98
2023-05-14T23:50:44.200Z,11.91
2023-05-14T23:53:13.934Z,11.86
2023-05-14T23:55:43.697Z,11.79
2023-05-14T23:58:13.543Z,11.73
